Philadelphia, Pennsylvania
Traffic Map
Current Weather Conditions
Philadelphia, Pennsylvania
Overcast
Overcast
60°
Feels Like: 60°
Wind Chill: 60° Ceiling: 2000
Heat Index: 60° Visibility: 10mi
Dew Point: 51° Wind: 12mph
Humidity: 72% Direction: 100° (E)
Pressure: 29.79in Gusts: 0mph
Raw Report DataKPHL 250254Z 10010KT 10SM BKN020 BKN040 OVC090 16/11 A2979 RMK AO2 SLP089 T01560106 50006 $
Traffic Incident Summary
Active as of:
Severity:
Category:
InformationThere was an issue retrieving the traffic information for this location. Please try a different location or try again shortly.
Advertisements
Track Severe Weather on mobile